New Richmond, WI

6:53 PM CDT on August 19, 2017 (GMT -0500)
New Richmond Municipal

Weather History for KRNH - November, 2013

Change the Weather History Date:

Thursday, November 21, 2013

  Actual Average (KSTP) Record (KSTP)
Temperature  
Mean Temperature 30 °F -  
Max Temperature 36 °F 37 °F 61 °F (2001)
Min Temperature 23 °F 23 °F 3 °F (2000)
Degree Days  
Heating Degree Days 35    
Moisture  
Dew Point 29 °F    
Average Humidity 94    
Maximum Humidity 100    
Minimum Humidity 69    
Precipitation  
Precipitation 0.00 in - - ()
Sea Level Pressure  
Sea Level Pressure 30.24 in    
Wind  
Wind Speed 6 mph (NNW)    
Max Wind Speed 20 mph    
Max Gust Speed 25 mph    
Visibility 4 miles    
Events Fog , Snow    
Averages and records for this station are not official NWS values.
T = Trace of Precipitation, MM = Missing Value Source: NWS Daily Summary

Daily Weather History Graph

Daily Weather History Graph

Search for Another Location

Airport or City:

Trip Planner

Search our weather history database for the weather conditions in past years. The results will help you decide how hot, cold, wet, or windy it might be!

Date:

Astronomy

Nov. 21, 2013 Rise Set
Actual Time 7:16 AM CST 4:35 PM CST
Civil Twilight 6:44 AM CST 5:07 PM CST
Nautical Twilight 6:08 AM CST 5:43 PM CST
Astronomical Twilight 5:33 AM CST 6:18 PM CST
Moon 8:14 PM CST (11/21) 10:22 AM CST (11/21)
Length of Visible Light 10h 23m
Length of Day
9h 18m
Waning Gibbous, 85% of the Moon is Illuminated
Nov 21
Waning Gibbous
Nov 25
Last Quarter
Dec 2
New
Dec 9
First Quarter
Dec 17
Full

Hourly Weather History & Observations

Time (CST) Temp. Windchill Dew Point Humidity Pressure Visibility Wind Dir Wind Speed Gust Speed Precip Events Conditions
12:15 AM 34.0 °F 29.8 °F 34.0 °F 100% 30.04 in 0.8 mi SE 4.6 mph - N/A   Overcast
12:35 AM 34.2 °F 31.2 °F 34.2 °F 100% 30.05 in 0.8 mi SSE 3.5 mph - N/A   Overcast
12:55 AM 34.2 °F 31.2 °F 34.2 °F 100% 30.04 in 0.5 mi SSE 3.5 mph - N/A Fog Fog
1:15 AM 34.2 °F 31.2 °F 34.2 °F 100% 30.05 in 0.5 mi SSE 3.5 mph - N/A Fog Fog
1:35 AM 34.3 °F - 34.3 °F 100% 30.05 in 0.5 mi Calm Calm - N/A Fog Fog
1:55 AM 34.3 °F - 34.3 °F 100% 30.06 in 0.5 mi Calm Calm - N/A Fog Fog
2:15 AM 34.5 °F - 34.5 °F 100% 30.07 in 0.5 mi Calm Calm - N/A Fog Fog
2:35 AM 34.7 °F - 34.7 °F 100% 30.09 in 0.5 mi Calm Calm - N/A Fog Fog
2:55 AM 34.7 °F - 34.7 °F 100% 30.08 in 0.5 mi Calm Calm - N/A Fog Fog
3:15 AM 34.7 °F - 34.7 °F 100% 30.08 in 0.5 mi Calm Calm - N/A Fog Fog
3:35 AM 34.7 °F - 34.7 °F 100% 30.08 in 0.5 mi Calm Calm - N/A Fog Fog
3:55 AM 34.7 °F - 34.7 °F 100% 30.08 in 0.5 mi Calm Calm - N/A Fog Fog
4:15 AM 34.7 °F - 34.7 °F 100% 30.09 in 0.5 mi Calm Calm - N/A Fog Fog
4:35 AM 34.7 °F - 34.7 °F 100% 30.09 in 0.2 mi Calm Calm - N/A Fog Fog
4:55 AM 34.7 °F - 34.7 °F 100% 30.08 in 0.2 mi Calm Calm - N/A Fog Fog
5:15 AM 34.7 °F - 34.7 °F 100% 30.09 in 0.2 mi Calm Calm - N/A Fog Fog
5:35 AM 34.7 °F - 34.7 °F 100% 30.10 in 0.2 mi Calm Calm - N/A Fog Fog
5:55 AM 34.9 °F - 34.9 °F 100% 30.11 in 0.2 mi Calm Calm - N/A Fog Fog
6:15 AM 34.9 °F - 34.9 °F 100% 30.11 in 0.2 mi Calm Calm - N/A Fog Fog
6:35 AM 35.1 °F - 35.1 °F 100% 30.12 in 0.5 mi Calm Calm - N/A Fog Fog
6:55 AM 35.1 °F - 35.1 °F 100% 30.13 in 0.2 mi Calm Calm - N/A Fog Fog
7:15 AM 35.1 °F - 35.1 °F 100% 30.14 in 0.5 mi Calm Calm - N/A Fog Fog
7:35 AM 35.2 °F - 35.2 °F 100% 30.14 in 0.5 mi Calm Calm - N/A Fog Fog
7:55 AM 35.6 °F - 35.6 °F 100% 30.15 in 0.8 mi Calm Calm - N/A   Overcast
8:15 AM 35.6 °F - 35.6 °F 100% 30.16 in 1.0 mi Calm Calm - N/A   Overcast
8:35 AM 35.6 °F - 35.6 °F 100% 30.16 in 0.5 mi Calm Calm - N/A Fog Fog
8:55 AM 35.8 °F 30.1 °F 35.8 °F 100% 30.16 in 0.2 mi WNW 6.9 mph - N/A Fog Fog
9:15 AM 36.0 °F 29.6 °F 36.0 °F 100% 30.17 in 0.5 mi WNW 8.1 mph - N/A Fog Fog
9:35 AM 36.1 °F 29.9 °F 36.1 °F 100% 30.18 in 0.5 mi NW 8.1 mph - N/A Fog Fog
9:55 AM 34.9 °F 27.1 °F 34.9 °F 100% 30.19 in 0.5 mi NW 10.4 mph - N/A Fog Fog
10:15 AM 34.7 °F 25.1 °F 34.7 °F 100% 30.19 in 0.8 mi WNW 15.0 mph - N/A   Overcast
10:35 AM 33.3 °F 24.1 °F 33.3 °F 100% 30.20 in 1.5 mi NNW 12.7 mph - N/A   Overcast
10:55 AM 32.0 °F 20.8 °F 32.0 °F 100% 30.21 in 4.0 mi NNW 17.3 mph 21.9 mph N/A   Overcast
11:15 AM 31.3 °F 20.3 °F 31.3 °F 100% 30.22 in 5.0 mi NNW 16.1 mph 24.2 mph N/A   Overcast
11:35 AM 31.1 °F 19.3 °F 31.1 °F 100% 30.22 in 7.0 mi North 18.4 mph 23.0 mph N/A   Overcast
11:55 AM 31.1 °F 21.9 °F 31.1 °F 100% 30.23 in 10.0 mi North 11.5 mph - N/A   Overcast
12:15 PM 31.1 °F 22.4 °F 31.1 °F 100% 30.24 in 5.0 mi NNW 10.4 mph - N/A   Overcast
12:35 PM 30.7 °F 20.9 °F 30.4 °F 99% 30.25 in 3.0 mi NNW 12.7 mph - N/A   Overcast
12:55 PM 30.0 °F 18.7 °F 29.5 °F 98% 30.26 in 2.0 mi NW 16.1 mph 20.7 mph N/A   Overcast
1:15 PM 29.3 °F 19.6 °F 28.9 °F 99% 30.26 in 2.0 mi NNW 11.5 mph 19.6 mph N/A   Overcast
1:35 PM 29.5 °F 19.3 °F 29.1 °F 99% 30.26 in 2.5 mi NNW 12.7 mph - N/A   Overcast
1:55 PM 28.9 °F 18.6 °F 28.2 °F 97% 30.27 in 2.5 mi NNW 12.7 mph 18.4 mph N/A   Overcast
2:15 PM 28.6 °F 17.7 °F 28.4 °F 99% 30.28 in 2.5 mi NNW 13.8 mph - N/A   Overcast
2:35 PM 28.2 °F 17.2 °F 27.5 °F 97% 30.28 in 4.0 mi NNW 13.8 mph - N/A   Overcast
2:55 PM 27.9 °F 17.3 °F 27.1 °F 97% 30.29 in 7.0 mi NNW 12.7 mph - N/A   Overcast
3:15 PM 27.7 °F 16.1 °F 26.4 °F 95% 30.29 in 3.0 mi NNW 15.0 mph - N/A Snow Light Snow
3:35 PM 27.5 °F 16.8 °F 26.6 °F 96% 30.30 in 1.8 mi NNW 12.7 mph - N/A Snow Light Snow
3:55 PM 27.5 °F 15.9 °F 26.1 °F 94% 30.31 in 2.0 mi North 15.0 mph - N/A Snow Light Snow
4:15 PM 27.1 °F 15.9 °F 25.2 °F 92% 30.32 in 4.0 mi North 13.8 mph - N/A Snow Light Snow
4:35 PM 27.0 °F 16.1 °F 25.2 °F 93% 30.33 in 5.0 mi NNW 12.7 mph - N/A Snow Light Snow
4:55 PM 26.6 °F 13.8 °F 23.9 °F 90% 30.34 in 4.0 mi North 17.3 mph - N/A Snow Light Snow
5:15 PM 26.4 °F 15.0 °F 23.9 °F 90% 30.35 in 7.0 mi North 13.8 mph - N/A Snow Light Snow
5:35 PM 26.6 °F 15.2 °F 24.4 °F 92% 30.35 in 7.0 mi North 13.8 mph 17.3 mph N/A Snow Light Snow
5:55 PM 26.6 °F 15.7 °F 24.1 °F 90% 30.35 in 10.0 mi North 12.7 mph - N/A   Overcast
6:15 PM 26.6 °F 16.2 °F 23.7 °F 89% 30.36 in 10.0 mi North 11.5 mph - N/A   Overcast
6:35 PM 26.6 °F 16.8 °F 23.5 °F 88% 30.37 in 10.0 mi North 10.4 mph - N/A   Overcast
6:55 PM 26.6 °F 16.2 °F 23.0 °F 86% 30.38 in 10.0 mi North 11.5 mph - N/A   Overcast
7:15 PM 27.0 °F 16.1 °F 21.0 °F 78% 30.39 in 10.0 mi NNW 12.7 mph 18.4 mph N/A   Overcast
7:35 PM 26.4 °F 15.5 °F 21.2 °F 81% 30.40 in 5.0 mi North 12.7 mph - N/A Snow Light Snow
7:55 PM 26.2 °F 14.2 °F 21.2 °F 81% 30.40 in 7.0 mi North 15.0 mph 19.6 mph N/A Snow Light Snow
8:15 PM 25.9 °F 13.8 °F 21.0 °F 82% 30.41 in 10.0 mi North 15.0 mph 21.9 mph N/A Snow Light Snow
8:35 PM 25.5 °F 13.8 °F 22.3 °F 88% 30.42 in 3.0 mi North 13.8 mph - N/A Snow Light Snow
8:55 PM 24.8 °F 12.4 °F 22.1 °F 89% 30.42 in 4.0 mi North 15.0 mph 19.6 mph N/A Snow Light Snow
9:15 PM 24.8 °F 14.6 °F 22.3 °F 90% 30.43 in 4.0 mi NNW 10.4 mph - N/A Snow Light Snow
9:35 PM 25.2 °F 12.9 °F 19.0 °F 78% 30.43 in 10.0 mi North 15.0 mph - N/A Snow Light Snow
9:55 PM 25.0 °F 13.6 °F 16.3 °F 70% 30.44 in 10.0 mi North 12.7 mph 19.6 mph N/A   Overcast
10:15 PM 24.8 °F 11.9 °F 15.8 °F 69% 30.44 in 10.0 mi North 16.1 mph - N/A   Overcast
10:35 PM 24.8 °F 14.0 °F 16.5 °F 71% 30.45 in 10.0 mi North 11.5 mph - N/A   Overcast
10:55 PM 24.6 °F 10.5 °F 16.0 °F 70% 30.46 in 10.0 mi NNW 19.6 mph 25.3 mph N/A   Overcast
11:15 PM 24.4 °F 11.5 °F 15.8 °F 70% 30.47 in 10.0 mi North 16.1 mph 23.0 mph N/A   Overcast
11:35 PM 24.3 °F 13.9 °F 16.0 °F 71% 30.48 in 10.0 mi North 10.4 mph - N/A   Overcast
11:55 PM 23.9 °F 12.9 °F 15.6 °F 71% 30.48 in 10.0 mi North 11.5 mph 18.4 mph N/A   Overcast